KBYG/BYG METAR and TAF weather

Enter ICAO airport designator
Station Type Date Time Source
KBYG METAR 2019/04/18 09:53 UTC NOAA

KBYG 180953Z AUTO 33012G17KT 10SM FEW055 OVC085 06/M02 A3011 RMK AO2 PK WND 32032/0903 RAE0854B31E41 SLP187 P0000 T00561022


Station Type Date Time Source
KBYG Decoded METAR 2019/04/18 09:53 UTC NOAA

BUFFALO JOHNSON COUNTY AIRPORT , WY, United States (KBYG) 44-23N 106-43W 1497M
Apr 18, 2019 - 05:53 AM EDT / 2019.04.18 0953 UTC
Wind: from the NNW (330 degrees) at 14 MPH (12 KT) gusting to 20 MPH (17 KT):0
Visibility: 10 mile(s):0
Sky conditions: overcast
Precipitation last hour: A trace
Temperature: 42.1 F (5.6 C)
Dew Point: 28.0 F (-2.2 C)
Relative Humidity: 57%
Pressure (altimeter): 30.11 in. Hg (1019 hPa)
ob: KBYG 180953Z AUTO 33012G17KT 10SM FEW055 OVC085 06/M02 A3011 RMK AO2 PK WND 32032/0903 RAE0854B31E41 SLP187 P0000 T00561022
cycle: 10

Station Type Date Time Source
KBYG TAF UTC NOAA

Error!

Example: see airport list